West Lebanon, Pennsylvania
Current Conditions -  °F | °C
As of 2:55 PM on Thursday 18 Dec 2014 (Local Time) from KIDI Reporting Station
Overcast Overcast  
Wind Chill: -8°   Ceiling: 1500
Heat Index: -2°   Visibility: 8mi
Dew Point: -4°   Wind: 13mph
Humidity: 86%   Direction: 270°W
Pressure: 30.14"   Gusts: NA
Location:  40.6°N, 79.35°W
Report Text: KIDI 181955Z AUTO 27011KT 8SM OVC015 M02/M04 A3014 RMK A01
Loading
Personal Weather Stations






























Interactive Weather Map New forecast layout! Learn more

10-Day Weather Forecast

Advertisements
Track Severe Weather on mobile